sensor_id;sensor_type;location;lat;lon;timestamp;pressure;altitude;pressure_sealevel;temperature;humidity
17607;BME280;8922;52.240;20.980;2023-01-28T00:01:11;101006.53;;;0.89;81.25
17607;BME280;8922;52.240;20.980;2023-01-28T00:03:41;101008.31;;;0.91;81.16
17607;BME280;8922;52.240;20.980;2023-01-28T00:06:13;101007.53;;;0.92;81.67
17607;BME280;8922;52.240;20.980;2023-01-28T00:08:42;101004.19;;;0.93;80.54
17607;BME280;8922;52.240;20.980;2023-01-28T00:11:12;101006.78;;;0.95;80.87
17607;BME280;8922;52.240;20.980;2023-01-28T00:13:41;101006.84;;;0.96;80.60
17607;BME280;8922;52.240;20.980;2023-01-28T00:16:09;101011.94;;;0.96;80.64
17607;BME280;8922;52.240;20.980;2023-01-28T00:18:38;101017.00;;;0.96;80.58
17607;BME280;8922;52.240;20.980;2023-01-28T00:21:11;101010.16;;;0.95;81.51
17607;BME280;8922;52.240;20.980;2023-01-28T00:23:42;101010.25;;;0.97;81.05
17607;BME280;8922;52.240;20.980;2023-01-28T00:26:13;101013.66;;;0.98;81.44
17607;BME280;8922;52.240;20.980;2023-01-28T00:28:43;101005.19;;;0.97;80.89
17607;BME280;8922;52.240;20.980;2023-01-28T00:31:16;101009.53;;;1.00;80.56
17607;BME280;8922;52.240;20.980;2023-01-28T00:33:47;101007.00;;;1.00;81.27
17607;BME280;8922;52.240;20.980;2023-01-28T00:36:19;101005.31;;;1.00;81.27
17607;BME280;8922;52.240;20.980;2023-01-28T00:38:51;101018.06;;;1.02;80.70
17607;BME280;8922;52.240;20.980;2023-01-28T00:41:22;101011.94;;;0.96;80.37
17607;BME280;8922;52.240;20.980;2023-01-28T00:43:51;101014.38;;;0.95;81.25
17607;BME280;8922;52.240;20.980;2023-01-28T00:46:21;101007.53;;;0.92;81.36
17607;BME280;8922;52.240;20.980;2023-01-28T00:48:50;101011.94;;;0.96;81.49
17607;BME280;8922;52.240;20.980;2023-01-28T00:51:20;101005.09;;;0.95;81.37
17607;BME280;8922;52.240;20.980;2023-01-28T00:53:49;101008.59;;;0.98;80.82
17607;BME280;8922;52.240;20.980;2023-01-28T00:56:19;101002.66;;;0.97;80.95
17607;BME280;8922;52.240;20.980;2023-01-28T00:58:47;101001.03;;;0.99;81.56
17607;BME280;8922;52.240;20.980;2023-01-28T01:01:19;101003.63;;;1.01;81.26
17607;BME280;8922;52.240;20.980;2023-01-28T01:03:48;101001.91;;;1.00;81.43
17607;BME280;8922;52.240;20.980;2023-01-28T01:06:25;101009.44;;;0.98;81.22
17607;BME280;8922;52.240;20.980;2023-01-28T01:08:53;100999.28;;;0.98;80.96
17607;BME280;8922;52.240;20.980;2023-01-28T01:11:22;101000.97;;;0.98;81.40
17607;BME280;8922;52.240;20.980;2023-01-28T01:13:52;100999.38;;;1.00;81.18
17607;BME280;8922;52.240;20.980;2023-01-28T01:16:25;101002.03;;;1.03;81.10
17607;BME280;8922;52.240;20.980;2023-01-28T01:18:55;101001.34;;;1.07;80.76
17607;BME280;8922;52.240;20.980;2023-01-28T01:21:27;101012.44;;;1.09;80.74
17607;BME280;8922;52.240;20.980;2023-01-28T01:23:56;101003.09;;;1.08;80.94
17607;BME280;8922;52.240;20.980;2023-01-28T01:26:25;101004.00;;;1.10;80.50
17607;BME280;8922;52.240;20.980;2023-01-28T01:28:54;101000.56;;;1.08;80.88
17607;BME280;8922;52.240;20.980;2023-01-28T01:31:22;100998.03;;;1.08;80.83
17607;BME280;8922;52.240;20.980;2023-01-28T01:33:51;100992.88;;;1.06;81.07
17607;BME280;8922;52.240;20.980;2023-01-28T01:36:20;100999.63;;;1.06;81.12
17607;BME280;8922;52.240;20.980;2023-01-28T01:38:54;100992.94;;;1.08;81.00
17607;BME280;8922;52.240;20.980;2023-01-28T01:41:27;100999.75;;;1.09;80.80
17607;BME280;8922;52.240;20.980;2023-01-28T01:43:59;101000.47;;;1.06;81.09
17607;BME280;8922;52.240;20.980;2023-01-28T01:46:34;100995.22;;;1.02;80.94
17607;BME280;8922;52.240;20.980;2023-01-28T01:49:13;101004.63;;;1.04;81.01
17607;BME280;8922;52.240;20.980;2023-01-28T01:51:46;101001.25;;;1.04;81.00
17607;BME280;8922;52.240;20.980;2023-01-28T01:54:19;100994.63;;;1.07;80.99
17607;BME280;8922;52.240;20.980;2023-01-28T01:56:50;100997.25;;;1.10;80.65
17607;BME280;8922;52.240;20.980;2023-01-28T01:59:23;101000.69;;;1.11;80.92
17607;BME280;8922;52.240;20.980;2023-01-28T02:01:53;100993.81;;;1.08;80.89
17607;BME280;8922;52.240;20.980;2023-01-28T02:04:25;101000.78;;;1.14;80.52
17607;BME280;8922;52.240;20.980;2023-01-28T02:06:56;101006.00;;;1.17;80.42
17607;BME280;8922;52.240;20.980;2023-01-28T02:09:30;100997.47;;;1.15;80.70
17607;BME280;8922;52.240;20.980;2023-01-28T02:12:03;101003.56;;;1.18;80.52
17607;BME280;8922;52.240;20.980;2023-01-28T02:14:38;101006.88;;;1.17;80.67
17607;BME280;8922;52.240;20.980;2023-01-28T02:17:09;101012.94;;;1.21;80.46
17607;BME280;8922;52.240;20.980;2023-01-28T02:19:42;101000.16;;;1.18;80.13
17607;BME280;8922;52.240;20.980;2023-01-28T02:26:21;101011.47;;;1.26;80.55
17607;BME280;8922;52.240;20.980;2023-01-28T02:28:59;101010.81;;;1.30;80.39
17607;BME280;8922;52.240;20.980;2023-01-28T02:31:36;101008.25;;;1.30;80.29
17607;BME280;8922;52.240;20.980;2023-01-28T02:34:13;101013.34;;;1.30;80.48
17607;BME280;8922;52.240;20.980;2023-01-28T02:36:49;101014.16;;;1.29;80.16
17607;BME280;8922;52.240;20.980;2023-01-28T02:39:25;101010.72;;;1.29;80.30
17607;BME280;8922;52.240;20.980;2023-01-28T02:41:59;101004.66;;;1.25;80.36
17607;BME280;8922;52.240;20.980;2023-01-28T02:44:31;101006.31;;;1.25;80.40
17607;BME280;8922;52.240;20.980;2023-01-28T02:47:00;101004.66;;;1.25;79.87
17607;BME280;8922;52.240;20.980;2023-01-28T03:14:25;101019.25;;;1.10;80.45
17607;BME280;8922;52.240;20.980;2023-01-28T03:17:16;101019.19;;;1.08;80.24
17607;BME280;8922;52.240;20.980;2023-01-28T03:20:05;101015.78;;;1.08;80.48
17607;BME280;8922;52.240;20.980;2023-01-28T03:22:54;101018.38;;;1.09;80.46
17607;BME280;8922;52.240;20.980;2023-01-28T03:25:44;101018.47;;;1.11;80.30
17607;BME280;8922;52.240;20.980;2023-01-28T03:28:33;101021.06;;;1.12;80.10
17607;BME280;8922;52.240;20.980;2023-01-28T03:31:23;101016.97;;;1.16;80.56
17607;BME280;8922;52.240;20.980;2023-01-28T03:34:10;101016.25;;;1.18;80.16
17607;BME280;8922;52.240;20.980;2023-01-28T03:36:58;101008.69;;;1.20;80.63
17607;BME280;8922;52.240;20.980;2023-01-28T03:39:29;101007.88;;;1.21;80.22
17607;BME280;8922;52.240;20.980;2023-01-28T03:42:01;101011.34;;;1.23;80.58
17607;BME280;8922;52.240;20.980;2023-01-28T03:44:31;101012.22;;;1.24;80.18
17607;BME280;8922;52.240;20.980;2023-01-28T03:47:19;101009.72;;;1.25;80.02
17607;BME280;8922;52.240;20.980;2023-01-28T03:49:50;101019.88;;;1.25;80.05
17607;BME280;8922;52.240;20.980;2023-01-28T03:52:21;101012.22;;;1.24;80.05
17607;BME280;8922;52.240;20.980;2023-01-28T03:54:50;101016.47;;;1.25;80.25
17607;BME280;8922;52.240;20.980;2023-01-28T03:57:22;101010.53;;;1.24;80.23
17607;BME280;8922;52.240;20.980;2023-01-28T03:59:53;101009.00;;;1.28;80.21
17607;BME280;8922;52.240;20.980;2023-01-28T04:02:23;101017.56;;;1.30;80.04
17607;BME280;8922;52.240;20.980;2023-01-28T04:04:53;101015.88;;;1.30;80.46
17607;BME280;8922;52.240;20.980;2023-01-28T04:07:21;101016.69;;;1.29;79.59
17607;BME280;8922;52.240;20.980;2023-01-28T04:09:50;101020.00;;;1.28;80.60
17607;BME280;8922;52.240;20.980;2023-01-28T04:12:18;101013.06;;;1.24;80.31
17607;BME280;8922;52.240;20.980;2023-01-28T04:14:46;101010.50;;;1.23;80.47
17607;BME280;8922;52.240;20.980;2023-01-28T04:17:15;101015.47;;;1.21;79.54
17607;BME280;8922;52.240;20.980;2023-01-28T04:19:44;101016.38;;;1.22;79.96
17607;BME280;8922;52.240;20.980;2023-01-28T04:22:13;101017.25;;;1.22;79.76
17607;BME280;8922;52.240;20.980;2023-01-28T04:24:41;101013.72;;;1.18;80.48
17607;BME280;8922;52.240;20.980;2023-01-28T04:27:10;101012.84;;;1.18;80.29
17607;BME280;8922;52.240;20.980;2023-01-28T04:29:39;101011.09;;;1.17;79.75
17607;BME280;8922;52.240;20.980;2023-01-28T04:32:07;101013.56;;;1.15;79.81
17607;BME280;8922;52.240;20.980;2023-01-28T04:34:37;101021.22;;;1.17;80.19
17607;BME280;8922;52.240;20.980;2023-01-28T04:37:07;101017.84;;;1.16;80.54
17607;BME280;8922;52.240;20.980;2023-01-28T04:39:36;101022.31;;;1.22;80.58
17607;BME280;8922;52.240;20.980;2023-01-28T04:42:06;101018.16;;;1.24;80.23
17607;BME280;8922;52.240;20.980;2023-01-28T04:44:35;101021.69;;;1.28;79.93
17607;BME280;8922;52.240;20.980;2023-01-28T04:47:03;101021.78;;;1.29;79.90
17607;BME280;8922;52.240;20.980;2023-01-28T04:49:31;101030.31;;;1.31;80.11
17607;BME280;8922;52.240;20.980;2023-01-28T04:52:00;101027.72;;;1.30;79.70
17607;BME280;8922;52.240;20.980;2023-01-28T04:54:30;101020.81;;;1.27;80.25
17607;BME280;8922;52.240;20.980;2023-01-28T04:56:58;101037.78;;;1.28;80.06
17607;BME280;8922;52.240;20.980;2023-01-28T04:59:27;101021.50;;;1.23;79.69
17607;BME280;8922;52.240;20.980;2023-01-28T05:01:56;101026.59;;;1.23;79.76
17607;BME280;8922;52.240;20.980;2023-01-28T05:04:24;101024.84;;;1.22;79.94
17607;BME280;8922;52.240;20.980;2023-01-28T05:06:53;101027.44;;;1.24;79.88
17607;BME280;8922;52.240;20.980;2023-01-28T05:09:21;101029.16;;;1.25;79.82
17607;BME280;8922;52.240;20.980;2023-01-28T05:11:51;101027.44;;;1.24;80.04
17607;BME280;8922;52.240;20.980;2023-01-28T05:14:20;101031.66;;;1.23;79.91
17607;BME280;8922;52.240;20.980;2023-01-28T05:16:49;101028.38;;;1.26;80.55
17607;BME280;8922;52.240;20.980;2023-01-28T05:19:18;101024.03;;;1.23;80.29
17607;BME280;8922;52.240;20.980;2023-01-28T05:21:46;101030.94;;;1.26;80.40
17607;BME280;8922;52.240;20.980;2023-01-28T05:24:15;101027.50;;;1.25;79.67
17607;BME280;8922;52.240;20.980;2023-01-28T05:26:44;101037.72;;;1.27;80.19
17607;BME280;8922;52.240;20.980;2023-01-28T05:29:14;101034.34;;;1.26;79.99
17607;BME280;8922;52.240;20.980;2023-01-28T05:31:42;101040.19;;;1.25;79.36
17607;BME280;8922;52.240;20.980;2023-01-28T05:34:10;101033.25;;;1.21;79.86
17607;BME280;8922;52.240;20.980;2023-01-28T05:36:39;101034.16;;;1.22;79.84
17607;BME280;8922;52.240;20.980;2023-01-28T05:39:08;101036.59;;;1.20;79.56
17607;BME280;8922;52.240;20.980;2023-01-28T05:41:36;101041.69;;;1.20;79.79
17607;BME280;8922;52.240;20.980;2023-01-28T05:44:05;101036.59;;;1.20;80.35
17607;BME280;8922;52.240;20.980;2023-01-28T05:46:35;101035.78;;;1.21;80.35
17607;BME280;8922;52.240;20.980;2023-01-28T05:49:03;101038.41;;;1.23;79.52
17607;BME280;8922;52.240;20.980;2023-01-28T05:51:34;101048.56;;;1.23;79.50
17607;BME280;8922;52.240;20.980;2023-01-28T05:54:03;101050.25;;;1.22;80.56
17607;BME280;8922;52.240;20.980;2023-01-28T05:56:31;101035.75;;;1.19;80.58
17607;BME280;8922;52.240;20.980;2023-01-28T05:59:04;101040.09;;;1.22;80.39
17607;BME280;8922;52.240;20.980;2023-01-28T06:01:35;101051.03;;;1.21;80.26
17607;BME280;8922;52.240;20.980;2023-01-28T06:04:04;101037.31;;;1.17;80.77
17607;BME280;8922;52.240;20.980;2023-01-28T06:06:33;101048.47;;;1.21;80.85
17607;BME280;8922;52.240;20.980;2023-01-28T06:09:01;101042.50;;;1.19;80.01
17607;BME280;8922;52.240;20.980;2023-01-28T06:11:30;101052.78;;;1.22;80.11
17607;BME280;8922;52.240;20.980;2023-01-28T06:13:58;101050.25;;;1.22;80.33
17607;BME280;8922;52.240;20.980;2023-01-28T06:16:27;101060.63;;;1.28;80.75
17607;BME280;8922;52.240;20.980;2023-01-28T06:18:56;101063.16;;;1.28;81.22
17607;BME280;8922;52.240;20.980;2023-01-28T06:21:25;101063.16;;;1.28;80.66
17607;BME280;8922;52.240;20.980;2023-01-28T06:23:56;101060.63;;;1.28;80.87
17607;BME280;8922;52.240;20.980;2023-01-28T06:26:24;101063.25;;;1.30;80.27
17607;BME280;8922;52.240;20.980;2023-01-28T06:28:53;101067.53;;;1.31;80.57
17607;BME280;8922;52.240;20.980;2023-01-28T06:31:21;101064.78;;;1.26;80.40
17607;BME280;8922;52.240;20.980;2023-01-28T06:33:50;101069.00;;;1.26;80.77
17607;BME280;8922;52.240;20.980;2023-01-28T06:36:20;101069.94;;;1.28;81.08
17607;BME280;8922;52.240;20.980;2023-01-28T06:38:48;101062.31;;;1.28;81.15
17607;BME280;8922;52.240;20.980;2023-01-28T06:41:17;101070.78;;;1.28;81.19
17607;BME280;8922;52.240;20.980;2023-01-28T06:43:45;101080.16;;;1.29;80.19
17607;BME280;8922;52.240;20.980;2023-01-28T06:46:14;101080.16;;;1.29;80.17
17607;BME280;8922;52.240;20.980;2023-01-28T06:48:42;101069.94;;;1.28;80.43
17607;BME280;8922;52.240;20.980;2023-01-28T06:51:11;101062.13;;;1.23;80.54
17607;BME280;8922;52.240;20.980;2023-01-28T06:53:40;101078.53;;;1.31;80.37
17607;BME280;8922;52.240;20.980;2023-01-28T06:56:12;101074.31;;;1.32;80.64
17607;BME280;8922;52.240;20.980;2023-01-28T06:58:40;101082.81;;;1.32;81.05
17607;BME280;8922;52.240;20.980;2023-01-28T07:01:08;101084.34;;;1.29;80.59
17607;BME280;8922;52.240;20.980;2023-01-28T07:03:37;101087.78;;;1.29;80.46
17607;BME280;8922;52.240;20.980;2023-01-28T07:06:06;101099.66;;;1.30;81.35
17607;BME280;8922;52.240;20.980;2023-01-28T07:08:34;101094.72;;;1.33;80.91
17607;BME280;8922;52.240;20.980;2023-01-28T07:11:05;101099.94;;;1.36;81.58
17607;BME280;8922;52.240;20.980;2023-01-28T07:13:34;101087.28;;;1.38;80.99
17607;BME280;8922;52.240;20.980;2023-01-28T07:16:03;101091.75;;;1.43;80.72
17607;BME280;8922;52.240;20.980;2023-01-28T07:18:31;101098.72;;;1.48;80.47
17607;BME280;8922;52.240;20.980;2023-01-28T07:21:00;101097.81;;;1.47;80.50
17607;BME280;8922;52.240;20.980;2023-01-28T07:23:29;101090.16;;;1.45;81.25
17607;BME280;8922;52.240;20.980;2023-01-28T07:26:01;101085.88;;;1.44;81.00
17607;BME280;8922;52.240;20.980;2023-01-28T07:28:33;101096.81;;;1.43;81.02
17607;BME280;8922;52.240;20.980;2023-01-28T07:31:01;101104.38;;;1.42;80.38
17607;BME280;8922;52.240;20.980;2023-01-28T07:33:30;101102.78;;;1.44;80.67
17607;BME280;8922;52.240;20.980;2023-01-28T07:35:59;101106.13;;;1.43;80.54
17607;BME280;8922;52.240;20.980;2023-01-28T07:38:27;101104.38;;;1.42;80.77
17607;BME280;8922;52.240;20.980;2023-01-28T07:40:56;101109.41;;;1.40;81.09
17607;BME280;8922;52.240;20.980;2023-01-28T07:43:24;101108.47;;;1.38;81.00
17607;BME280;8922;52.240;20.980;2023-01-28T07:45:54;101110.19;;;1.39;80.65
17607;BME280;8922;52.240;20.980;2023-01-28T07:48:23;101105.88;;;1.37;80.48
17607;BME280;8922;52.240;20.980;2023-01-28T07:50:51;101107.59;;;1.38;80.69
17607;BME280;8922;52.240;20.980;2023-01-28T07:53:21;101104.13;;;1.36;81.18
17607;BME280;8922;52.240;20.980;2023-01-28T07:55:49;101115.28;;;1.39;80.81
17607;BME280;8922;52.240;20.980;2023-01-28T07:58:18;101117.91;;;1.41;80.75
17607;BME280;8922;52.240;20.980;2023-01-28T08:00:47;101112.81;;;1.41;80.54
17607;BME280;8922;52.240;20.980;2023-01-28T08:03:16;101109.41;;;1.40;80.59
17607;BME280;8922;52.240;20.980;2023-01-28T08:05:47;101117.94;;;1.42;80.59
17607;BME280;8922;52.240;20.980;2023-01-28T08:08:16;101102.66;;;1.41;80.55
17607;BME280;8922;52.240;20.980;2023-01-28T08:10:46;101108.47;;;1.38;81.24
17607;BME280;8922;52.240;20.980;2023-01-28T08:15:43;101105.13;;;1.39;80.57
17607;BME280;8922;52.240;20.980;2023-01-28T08:18:14;101099.13;;;1.37;80.45
17607;BME280;8922;52.240;20.980;2023-01-28T08:20:45;101101.66;;;1.37;80.59
17607;BME280;8922;52.240;20.980;2023-01-28T08:23:16;101105.25;;;1.42;81.24
17607;BME280;8922;52.240;20.980;2023-01-28T08:25:47;101106.97;;;1.43;80.58
17607;BME280;8922;52.240;20.980;2023-01-28T08:28:16;101108.72;;;1.44;80.84
17607;BME280;8922;52.240;20.980;2023-01-28T08:30:45;101104.38;;;1.42;80.26
17607;BME280;8922;52.240;20.980;2023-01-28T08:33:16;101109.50;;;1.43;80.56
17607;BME280;8922;52.240;20.980;2023-01-28T08:35:47;101106.97;;;1.43;80.64
17607;BME280;8922;52.240;20.980;2023-01-28T08:38:15;101108.66;;;1.43;80.28
17607;BME280;8922;52.240;20.980;2023-01-28T08:40:46;101105.25;;;1.42;80.67
17607;BME280;8922;52.240;20.980;2023-01-28T08:43:16;101100.13;;;1.41;80.30
17607;BME280;8922;52.240;20.980;2023-01-28T08:45:45;101110.19;;;1.39;80.72
17607;BME280;8922;52.240;20.980;2023-01-28T08:48:16;101107.59;;;1.38;80.45
17607;BME280;8922;52.240;20.980;2023-01-28T08:50:46;101105.00;;;1.36;80.74
17607;BME280;8922;52.240;20.980;2023-01-28T08:53:17;101106.56;;;1.33;80.52
17607;BME280;8922;52.240;20.980;2023-01-28T08:55:46;101107.31;;;1.32;80.58
17607;BME280;8922;52.240;20.980;2023-01-28T08:58:16;101109.94;;;1.33;80.84
17607;BME280;8922;52.240;20.980;2023-01-28T09:00:46;101112.63;;;1.36;80.42
17607;BME280;8922;52.240;20.980;2023-01-28T09:03:17;101116.91;;;1.37;80.86
17607;BME280;8922;52.240;20.980;2023-01-28T09:05:47;101110.09;;;1.36;80.25
17607;BME280;8922;52.240;20.980;2023-01-28T09:08:17;101120.34;;;1.39;80.18
17607;BME280;8922;52.240;20.980;2023-01-28T09:10:46;101125.44;;;1.39;80.92
17607;BME280;8922;52.240;20.980;2023-01-28T09:13:15;101128.81;;;1.40;81.25
17607;BME280;8922;52.240;20.980;2023-01-28T09:15:46;101131.50;;;1.43;80.42
17607;BME280;8922;52.240;20.980;2023-01-28T09:18:17;101130.66;;;1.42;80.62
17607;BME280;8922;52.240;20.980;2023-01-28T09:20:47;101125.56;;;1.42;80.07
17607;BME280;8922;52.240;20.980;2023-01-28T09:23:15;101139.22;;;1.44;80.99
17607;BME280;8922;52.240;20.980;2023-01-28T09:25:44;101135.81;;;1.44;80.95
17607;BME280;8922;52.240;20.980;2023-01-28T09:28:13;101138.41;;;1.45;80.46
17607;BME280;8922;52.240;20.980;2023-01-28T09:30:41;101134.03;;;1.43;80.50
17607;BME280;8922;52.240;20.980;2023-01-28T09:33:10;101138.34;;;1.44;80.34
17607;BME280;8922;52.240;20.980;2023-01-28T09:35:38;101140.00;;;1.43;80.78
17607;BME280;8922;52.240;20.980;2023-01-28T09:38:08;101138.94;;;1.38;80.74
17607;BME280;8922;52.240;20.980;2023-01-28T09:40:40;101138.03;;;1.36;80.46
17607;BME280;8922;52.240;20.980;2023-01-28T09:43:34;101137.13;;;1.36;80.59
17607;BME280;8922;52.240;20.980;2023-01-28T09:46:11;101132.94;;;1.36;80.89
17607;BME280;8922;52.240;20.980;2023-01-28T09:48:44;101131.25;;;1.37;80.80
17607;BME280;8922;52.240;20.980;2023-01-28T09:51:29;101130.66;;;1.42;80.77
17607;BME280;8922;52.240;20.980;2023-01-28T09:54:09;101131.66;;;1.46;80.52
17607;BME280;8922;52.240;20.980;2023-01-28T09:56:43;101133.44;;;1.49;80.92
17607;BME280;8922;52.240;20.980;2023-01-28T09:59:18;101137.84;;;1.53;81.44
17607;BME280;8922;52.240;20.980;2023-01-28T10:01:55;101134.38;;;1.51;80.93
17607;BME280;8922;52.240;20.980;2023-01-28T10:04:44;101125.09;;;1.51;80.30
17607;BME280;8922;52.240;20.980;2023-01-28T10:07:29;101122.47;;;1.50;80.33
17607;BME280;8922;52.240;20.980;2023-01-28T10:10:05;101126.88;;;1.54;80.97
17607;BME280;8922;52.240;20.980;2023-01-28T10:13:01;101124.44;;;1.55;80.19
17607;BME280;8922;52.240;20.980;2023-01-28T10:15:53;101113.50;;;1.58;80.42
17607;BME280;8922;52.240;20.980;2023-01-28T10:18:34;101121.25;;;1.61;80.81
17607;BME280;8922;52.240;20.980;2023-01-28T10:21:15;101118.72;;;1.61;80.66
17607;BME280;8922;52.240;20.980;2023-01-28T10:23:55;101120.34;;;1.59;79.97
17607;BME280;8922;52.240;20.980;2023-01-28T10:26:32;101122.06;;;1.60;80.47
17607;BME280;8922;52.240;20.980;2023-01-28T10:29:11;101115.31;;;1.60;80.31
17607;BME280;8922;52.240;20.980;2023-01-28T10:31:50;101105.97;;;1.59;79.68
17607;BME280;8922;52.240;20.980;2023-01-28T10:34:20;101110.97;;;1.58;79.09
17607;BME280;8922;52.240;20.980;2023-01-28T10:36:50;101110.09;;;1.57;79.19
17607;BME280;8922;52.240;20.980;2023-01-28T10:39:21;101109.28;;;1.58;79.12
17607;BME280;8922;52.240;20.980;2023-01-28T10:41:52;101105.88;;;1.58;79.32
17607;BME280;8922;52.240;20.980;2023-01-28T10:44:33;101101.56;;;1.55;79.27
17607;BME280;8922;52.240;20.980;2023-01-28T10:47:09;101107.66;;;1.59;79.88
17607;BME280;8922;52.240;20.980;2023-01-28T10:49:45;101095.81;;;1.59;79.21
17607;BME280;8922;52.240;20.980;2023-01-28T10:52:15;101099.34;;;1.63;79.79
17607;BME280;8922;52.240;20.980;2023-01-28T10:54:44;101098.47;;;1.62;78.96
17607;BME280;8922;52.240;20.980;2023-01-28T10:57:16;101108.66;;;1.62;79.04
17607;BME280;8922;52.240;20.980;2023-01-28T10:59:46;101103.47;;;1.61;78.79
17607;BME280;8922;52.240;20.980;2023-01-28T11:02:32;101100.94;;;1.61;78.71
17607;BME280;8922;52.240;20.980;2023-01-28T11:05:13;101091.59;;;1.60;79.08
17607;BME280;8922;52.240;20.980;2023-01-28T11:07:43;101101.03;;;1.62;78.59
17607;BME280;8922;52.240;20.980;2023-01-28T11:10:30;101096.81;;;1.63;78.77
17607;BME280;8922;52.240;20.980;2023-01-28T11:13:03;101097.72;;;1.65;79.20
17607;BME280;8922;52.240;20.980;2023-01-28T11:15:32;101092.78;;;1.68;79.29
17607;BME280;8922;52.240;20.980;2023-01-28T11:18:04;101091.03;;;1.67;78.76
17607;BME280;8922;52.240;20.980;2023-01-28T11:20:40;101092.47;;;1.60;78.39
17607;BME280;8922;52.240;20.980;2023-01-28T11:23:18;101087.31;;;1.59;78.26
17607;BME280;8922;52.240;20.980;2023-01-28T11:25:59;101085.66;;;1.59;78.72
17607;BME280;8922;52.240;20.980;2023-01-28T11:28:31;101084.09;;;1.63;78.99
17607;BME280;8922;52.240;20.980;2023-01-28T11:31:02;101085.09;;;1.66;78.91
17607;BME280;8922;52.240;20.980;2023-01-28T11:33:35;101086.81;;;1.67;78.42
17607;BME280;8922;52.240;20.980;2023-01-28T11:36:12;101085.16;;;1.68;79.12
17607;BME280;8922;52.240;20.980;2023-01-28T11:38:50;101075.81;;;1.67;78.69
17607;BME280;8922;52.240;20.980;2023-01-28T11:41:26;101068.88;;;1.63;78.64
17607;BME280;8922;52.240;20.980;2023-01-28T11:43:59;101073.94;;;1.63;78.59
17607;BME280;8922;52.240;20.980;2023-01-28T11:47:09;101074.84;;;1.65;79.01
17607;BME280;8922;52.240;20.980;2023-01-28T11:49:55;101074.06;;;1.66;78.30
17607;BME280;8922;52.240;20.980;2023-01-28T11:52:36;101072.44;;;1.68;78.79
17607;BME280;8922;52.240;20.980;2023-01-28T11:55:41;101078.47;;;1.70;78.61
17607;BME280;8922;52.240;20.980;2023-01-28T11:58:21;101071.63;;;1.69;78.02
17607;BME280;8922;52.240;20.980;2023-01-28T12:01:00;101070.78;;;1.68;78.46
17607;BME280;8922;52.240;20.980;2023-01-28T12:03:43;101077.78;;;1.74;77.65
17607;BME280;8922;52.240;20.980;2023-01-28T12:06:35;101071.84;;;1.74;78.29
17607;BME280;8922;52.240;20.980;2023-01-28T12:09:16;101073.53;;;1.73;77.99
17607;BME280;8922;52.240;20.980;2023-01-28T12:12:06;101069.09;;;1.69;78.07
17607;BME280;8922;52.240;20.980;2023-01-28T12:15:03;101070.03;;;1.71;77.30
17607;BME280;8922;52.240;20.980;2023-01-28T12:17:47;101072.63;;;1.73;77.39
17607;BME280;8922;52.240;20.980;2023-01-28T12:20:23;101075.16;;;1.73;77.34
17607;BME280;8922;52.240;20.980;2023-01-28T12:26:09;101062.53;;;1.74;77.35
17607;BME280;8922;52.240;20.980;2023-01-28T12:28:58;101066.84;;;1.77;77.67
17607;BME280;8922;52.240;20.980;2023-01-28T12:31:49;101069.47;;;1.78;78.15
17607;BME280;8922;52.240;20.980;2023-01-28T12:35:03;101070.16;;;1.74;76.94
17607;BME280;8922;52.240;20.980;2023-01-28T12:37:51;101069.22;;;1.72;77.02
17607;BME280;8922;52.240;20.980;2023-01-28T12:40:54;101067.63;;;1.74;77.11
17607;BME280;8922;52.240;20.980;2023-01-28T12:43:49;101061.59;;;1.72;77.40
17607;BME280;8922;52.240;20.980;2023-01-28T12:46:35;101065.78;;;1.70;77.00
17607;BME280;8922;52.240;20.980;2023-01-28T12:49:11;101061.25;;;1.63;77.05
17607;BME280;8922;52.240;20.980;2023-01-28T12:51:51;101069.78;;;1.65;77.56
17607;BME280;8922;52.240;20.980;2023-01-28T12:54:26;101068.09;;;1.65;77.58
17607;BME280;8922;52.240;20.980;2023-01-28T12:56:56;101074.06;;;1.66;77.36
17607;BME280;8922;52.240;20.980;2023-01-28T12:59:29;101069.78;;;1.65;78.07
17607;BME280;8922;52.240;20.980;2023-01-28T13:02:16;101069.84;;;1.66;77.26
17607;BME280;8922;52.240;20.980;2023-01-28T13:04:50;101073.19;;;1.65;77.65
17607;BME280;8922;52.240;20.980;2023-01-28T13:07:27;101071.44;;;1.64;77.91
17607;BME280;8922;52.240;20.980;2023-01-28T13:10:04;101068.91;;;1.64;77.69
17607;BME280;8922;52.240;20.980;2023-01-28T13:12:34;101063.84;;;1.64;77.56
17607;BME280;8922;52.240;20.980;2023-01-28T13:15:11;101072.44;;;1.68;77.77
17607;BME280;8922;52.240;20.980;2023-01-28T13:17:54;101074.19;;;1.69;77.42
17607;BME280;8922;52.240;20.980;2023-01-28T13:20:36;101075.06;;;1.69;77.67
17607;BME280;8922;52.240;20.980;2023-01-28T13:23:23;101077.59;;;1.69;76.73
17607;BME280;8922;52.240;20.980;2023-01-28T13:25:54;101071.63;;;1.69;77.35
17607;BME280;8922;52.240;20.980;2023-01-28T13:28:29;101075.06;;;1.69;76.52
17607;BME280;8922;52.240;20.980;2023-01-28T13:31:03;101077.53;;;1.68;76.33
17607;BME280;8922;52.240;20.980;2023-01-28T13:33:34;101075.81;;;1.67;77.23
17607;BME280;8922;52.240;20.980;2023-01-28T13:36:19;101075.81;;;1.67;76.99
17607;BME280;8922;52.240;20.980;2023-01-28T13:39:03;101075.06;;;1.69;76.92
17607;BME280;8922;52.240;20.980;2023-01-28T13:41:41;101075.94;;;1.70;77.11
17607;BME280;8922;52.240;20.980;2023-01-28T13:44:26;101073.38;;;1.70;76.92
17607;BME280;8922;52.240;20.980;2023-01-28T13:46:57;101081.16;;;1.73;77.02
17607;BME280;8922;52.240;20.980;2023-01-28T13:49:32;101077.66;;;1.71;76.64
17607;BME280;8922;52.240;20.980;2023-01-28T13:52:06;101077.66;;;1.71;76.87
17607;BME280;8922;52.240;20.980;2023-01-28T13:54:46;101076.63;;;1.66;76.86
17607;BME280;8922;52.240;20.980;2023-01-28T13:58:04;101068.72;;;1.60;77.33
17607;BME280;8922;52.240;20.980;2023-01-28T14:01:00;101071.97;;;1.56;76.86
17607;BME280;8922;52.240;20.980;2023-01-28T14:03:54;101073.56;;;1.54;77.36
17607;BME280;8922;52.240;20.980;2023-01-28T14:09:51;101069.41;;;1.56;77.83
17607;BME280;8922;52.240;20.980;2023-01-28T14:15:51;101057.72;;;1.59;76.82